Terminal Aerodrome Forecast
Issued by NWS

Home | Current Version | Previous Version | Text Only | Print | Product List | Glossary On
Versions: 1 2 3 4 5 6 7 8 9 10 11 12 13
125
FTAK31 PAJN 072323
TAFAKT
TAF
PAKT 072323Z 0800/0824 15010G20KT P6SM -RA SCT015 OVC030
     FM081500 15022G32KT 3SM RA BR SCT007 OVC015 WS020/21035KT
      AMD LTD TO CLD VIS AND WIND 0809/0812=

USA.gov is the U.S. government's official web portal to all federal, state and local government web resources and services.